Time;durP1;ratioP1;P1;durP2;ratioP2;P2;SDS_P1;SDS_P2;PMS_P1;PMS_P2;Temp;Humidity;BMP_temperature;BMP_pressure;BME280_temperature;BME280_humidity;BME280_pressure;Samples;Min_cycle;Max_cycle;Signal;HPM_P1;HPM_P2
2022/03/27 00:00:05;;;;;;;3.53;1.52;;;;;;;;;;4894898;29;20048;-73
2022/03/27 00:02:41;;;;;;;6.78;1.48;;;;;;;;;;4894964;29;20079;-72
2022/03/27 00:05:13;;;;;;;8.27;1.83;;;;;;;;;;4913975;29;20048;-72
2022/03/27 00:07:44;;;;;;;5.20;1.85;;;;;;;;;;4892849;29;20049;-72
2022/03/27 00:10:15;;;;;;;4.75;1.63;;;;;;;;;;4913652;29;20409;-72
2022/03/27 00:12:45;;;;;;;4.20;1.38;;;;;;;;;;4920362;29;20495;-72
2022/03/27 00:15:17;;;;;;;3.90;1.73;;;;;;;;;;4913246;29;20071;-72
2022/03/27 00:17:48;;;;;;;4.53;1.80;;;;;;;;;;4913170;29;20052;-72
2022/03/27 00:20:18;;;;;;;4.43;1.70;;;;;;;;;;4914067;29;20064;-72
2022/03/27 00:22:49;;;;;;;5.60;1.92;;;;;;;;;;4903261;29;20093;-72
2022/03/27 00:25:20;;;;;;;5.93;1.92;;;;;;;;;;4894588;29;20065;-72
2022/03/27 00:27:51;;;;;;;5.78;2.00;;;;;;;;;;4924402;29;20055;-72
2022/03/27 00:30:22;;;;;;;4.40;1.50;;;;;;;;;;4967086;28;20051;-71
2022/03/27 00:32:52;;;;;;;5.13;1.70;;;;;;;;;;4951572;29;20059;-72
2022/03/27 00:35:23;;;;;;;6.32;1.77;;;;;;;;;;4923885;29;20059;-72
2022/03/27 00:37:54;;;;;;;5.47;2.13;;;;;;;;;;4932467;29;20056;-71
2022/03/27 00:40:25;;;;;;;6.25;1.85;;;;;;;;;;4932667;29;20071;-72
2022/03/27 00:42:55;;;;;;;5.50;1.70;;;;;;;;;;4922004;29;20060;-72
2022/03/27 00:45:26;;;;;;;7.68;1.60;;;;;;;;;;4885307;29;20418;-73
2022/03/27 00:47:57;;;;;;;3.38;1.42;;;;;;;;;;4885037;29;20061;-73
2022/03/27 00:50:30;;;;;;;8.65;2.15;;;;;;;;;;4884493;29;20064;-72
2022/03/27 00:53:01;;;;;;;8.15;2.03;;;;;;;;;;4903722;29;20056;-73
2022/03/27 00:55:32;;;;;;;6.10;2.00;;;;;;;;;;4906922;29;20060;-72
2022/03/27 00:58:04;;;;;;;6.72;2.13;;;;;;;;;;4932374;29;20064;-73
2022/03/27 01:00:41;;;;;;;4.53;1.65;;;;;;;;;;4932148;29;20056;-73
2022/03/27 01:03:20;;;;;;;7.25;1.92;;;;;;;;;;4931853;29;20051;-73
2022/03/27 01:05:51;;;;;;;;;;;;;;;;;;4939868;29;20534;-72
2022/03/27 01:11:19;;;;;;;7.90;2.10;;;;;;;;;;4912600;29;20043;-73
2022/03/27 01:13:59;;;;;;;5.03;2.13;;;;;;;;;;4944474;29;20066;-73
2022/03/27 01:16:40;;;;;;;4.32;1.70;;;;;;;;;;4935534;29;20523;-73
2022/03/27 01:19:15;;;;;;;4.40;1.80;;;;;;;;;;4919045;28;20063;-72
2022/03/27 01:21:47;;;;;;;3.90;1.58;;;;;;;;;;4931576;29;20163;-73
2022/03/27 01:24:19;;;;;;;7.55;2.33;;;;;;;;;;4931706;29;20397;-74
2022/03/27 01:26:50;;;;;;;6.03;2.00;;;;;;;;;;4915272;29;20055;-74
2022/03/27 01:29:21;;;;;;;6.60;1.60;;;;;;;;;;4950050;29;20054;-74
2022/03/27 01:31:53;;;;;;;5.22;1.90;;;;;;;;;;4950762;29;20558;-74
2022/03/27 01:34:24;;;;;;;5.30;1.95;;;;;;;;;;4950701;28;20074;-74
2022/03/27 01:36:55;;;;;;;7.50;2.75;;;;;;;;;;4935231;28;20420;-74
2022/03/27 01:39:26;;;;;;;5.88;1.83;;;;;;;;;;4950859;28;20415;-74
2022/03/27 01:41:57;;;;;;;5.28;2.08;;;;;;;;;;4931304;29;20055;-75
2022/03/27 01:44:27;;;;;;;4.70;2.08;;;;;;;;;;4896440;29;20052;-75
2022/03/27 01:46:59;;;;;;;5.93;2.10;;;;;;;;;;4912001;29;20056;-74
2022/03/27 01:49:30;;;;;;;7.45;2.47;;;;;;;;;;4881992;29;20061;-75
2022/03/27 01:52:01;;;;;;;5.97;2.22;;;;;;;;;;4856346;29;20069;-74
2022/03/27 01:54:31;;;;;;;8.85;2.42;;;;;;;;;;4856391;29;20503;-75
2022/03/27 01:57:03;;;;;;;7.22;2.53;;;;;;;;;;4893208;29;20057;-74
2022/03/27 01:59:35;;;;;;;4.78;2.17;;;;;;;;;;4914690;29;20520;-74
2022/03/27 02:02:05;;;;;;;8.32;2.70;;;;;;;;;;4931247;29;20060;-76
2022/03/27 02:04:36;;;;;;;10.13;2.72;;;;;;;;;;4904675;29;20068;-75
2022/03/27 02:07:07;;;;;;;7.57;2.80;;;;;;;;;;4910146;29;20064;-74
2022/03/27 02:09:38;;;;;;;6.88;2.60;;;;;;;;;;4893266;29;20052;-75
2022/03/27 02:12:09;;;;;;;5.57;2.35;;;;;;;;;;4893090;29;20131;-73
2022/03/27 02:14:40;;;;;;;6.53;2.67;;;;;;;;;;4889744;29;20057;-74
2022/03/27 02:17:10;;;;;;;6.90;2.83;;;;;;;;;;4890217;29;20413;-72
2022/03/27 02:19:41;;;;;;;6.30;2.40;;;;;;;;;;4879659;29;20079;-74
2022/03/27 02:22:12;;;;;;;9.32;2.88;;;;;;;;;;4930807;29;20067;-74
2022/03/27 02:24:43;;;;;;;9.93;3.10;;;;;;;;;;4925931;29;20055;-74
2022/03/27 02:27:14;;;;;;;7.63;3.08;;;;;;;;;;4950281;29;20070;-74
2022/03/27 02:29:45;;;;;;;9.07;2.80;;;;;;;;;;4933706;29;20059;-74
2022/03/27 02:32:15;;;;;;;7.70;3.55;;;;;;;;;;4950215;29;20537;-75
2022/03/27 02:34:46;;;;;;;9.38;3.42;;;;;;;;;;4950091;29;20836;-75
2022/03/27 02:37:16;;;;;;;7.68;3.00;;;;;;;;;;4933935;29;20071;-74
2022/03/27 02:39:47;;;;;;;11.38;3.42;;;;;;;;;;4950016;28;20059;-75
2022/03/27 02:42:18;;;;;;;10.10;2.80;;;;;;;;;;4953947;29;20059;-74
2022/03/27 02:44:48;;;;;;;8.13;3.55;;;;;;;;;;4972597;28;20050;-75
2022/03/27 02:47:19;;;;;;;9.18;3.05;;;;;;;;;;4972729;28;20055;-74
2022/03/27 02:49:49;;;;;;;8.15;3.78;;;;;;;;;;4972885;28;20423;-75
2022/03/27 02:52:20;;;;;;;17.30;3.63;;;;;;;;;;4982671;28;20066;-76
2022/03/27 02:54:51;;;;;;;15.55;3.63;;;;;;;;;;4992015;28;20054;-75
2022/03/27 02:57:21;;;;;;;9.93;3.22;;;;;;;;;;4992120;28;20065;-75
2022/03/27 02:59:53;;;;;;;10.30;3.08;;;;;;;;;;4992191;28;20050;-76
2022/03/27 03:02:24;;;;;;;9.40;3.13;;;;;;;;;;5011280;28;20061;-75
2022/03/27 03:04:55;;;;;;;6.32;2.80;;;;;;;;;;4972095;28;20427;-75
2022/03/27 03:07:26;;;;;;;6.90;2.80;;;;;;;;;;4962614;28;20055;-76
2022/03/27 03:09:57;;;;;;;8.55;3.22;;;;;;;;;;4936561;29;20047;-75
2022/03/27 03:12:28;;;;;;;11.63;3.28;;;;;;;;;;4953336;29;20055;-76
2022/03/27 03:14:59;;;;;;;8.98;3.20;;;;;;;;;;4963365;28;20163;-75
2022/03/27 03:17:30;;;;;;;6.65;2.40;;;;;;;;;;4967401;28;20058;-78
2022/03/27 03:20:01;;;;;;;6.40;2.50;;;;;;;;;;4975836;28;20065;-78
2022/03/27 03:22:33;;;;;;;6.50;2.72;;;;;;;;;;4991567;28;20057;-77
2022/03/27 03:25:05;;;;;;;6.10;2.83;;;;;;;;;;5007310;28;20058;-74
2022/03/27 03:27:36;;;;;;;8.20;3.30;;;;;;;;;;4952922;28;20531;-73
2022/03/27 03:30:09;;;;;;;11.10;3.03;;;;;;;;;;4952367;28;20062;-74
2022/03/27 03:32:39;;;;;;;6.57;2.75;;;;;;;;;;4952853;28;20051;-74
2022/03/27 03:35:10;;;;;;;8.85;3.33;;;;;;;;;;4968183;28;20055;-73
2022/03/27 03:38:01;;;;;;;9.85;3.08;;;;;;;;;;4952758;28;20047;-74
2022/03/27 03:40:32;;;;;;;10.25;3.50;;;;;;;;;;4939425;28;20064;-74
2022/03/27 03:43:02;;;;;;;10.80;3.45;;;;;;;;;;4933938;29;20066;-74
2022/03/27 03:45:33;;;;;;;12.50;4.05;;;;;;;;;;4933605;29;20055;-73
2022/03/27 03:48:06;;;;;;;11.27;4.00;;;;;;;;;;4973837;28;20127;-74
2022/03/27 03:50:37;;;;;;;8.70;3.38;;;;;;;;;;4990988;28;20066;-73
2022/03/27 03:53:08;;;;;;;8.10;3.40;;;;;;;;;;4971792;28;20046;-73
2022/03/27 03:55:39;;;;;;;7.70;3.20;;;;;;;;;;4971815;28;20062;-74
2022/03/27 03:58:09;;;;;;;11.07;3.30;;;;;;;;;;4971744;28;20057;-73
2022/03/27 04:00:41;;;;;;;6.80;3.20;;;;;;;;;;4971868;28;20055;-74
2022/03/27 04:03:14;;;;;;;14.68;3.13;;;;;;;;;;4971331;28;20637;-74
2022/03/27 04:05:45;;;;;;;8.75;3.10;;;;;;;;;;4952200;28;20502;-74
2022/03/27 04:08:15;;;;;;;7.63;3.35;;;;;;;;;;4933957;28;20054;-74
2022/03/27 04:10:46;;;;;;;7.93;3.38;;;;;;;;;;4990932;28;20054;-74
2022/03/27 04:13:16;;;;;;;10.38;3.30;;;;;;;;;;4990874;28;20187;-74
2022/03/27 04:15:47;;;;;;;11.60;4.00;;;;;;;;;;4971115;28;20427;-74
2022/03/27 04:18:25;;;;;;;8.98;3.03;;;;;;;;;;4971177;28;20499;-73
2022/03/27 04:20:55;;;;;;;8.82;4.13;;;;;;;;;;4939114;28;20522;-74
2022/03/27 04:23:26;;;;;;;12.07;2.97;;;;;;;;;;4971426;28;20065;-72
2022/03/27 04:25:57;;;;;;;7.60;3.40;;;;;;;;;;4971329;28;20054;-73
2022/03/27 04:28:27;;;;;;;9.27;3.13;;;;;;;;;;4970773;28;20043;-74
2022/03/27 04:30:58;;;;;;;12.32;3.47;;;;;;;;;;4971077;28;20058;-74
2022/03/27 04:33:29;;;;;;;10.43;3.97;;;;;;;;;;4971082;28;20051;-74
2022/03/27 04:36:00;;;;;;;8.48;3.13;;;;;;;;;;4951565;29;20051;-74
2022/03/27 04:38:30;;;;;;;6.45;2.70;;;;;;;;;;4936116;29;20054;-74
2022/03/27 04:41:01;;;;;;;12.50;3.40;;;;;;;;;;4951860;29;20063;-75
2022/03/27 04:43:32;;;;;;;8.43;3.00;;;;;;;;;;4951694;29;20047;-74
2022/03/27 04:46:04;;;;;;;10.20;3.50;;;;;;;;;;4951675;29;20063;-74
2022/03/27 04:48:35;;;;;;;13.77;3.25;;;;;;;;;;4943285;29;20047;-74
2022/03/27 04:51:06;;;;;;;11.98;3.42;;;;;;;;;;4951469;29;20054;-74
2022/03/27 04:53:37;;;;;;;7.30;3.25;;;;;;;;;;4903959;29;20059;-74
2022/03/27 04:56:09;;;;;;;10.27;3.08;;;;;;;;;;4919619;29;20062;-75
2022/03/27 04:58:39;;;;;;;11.98;3.17;;;;;;;;;;4951504;29;20043;-75
2022/03/27 05:01:10;;;;;;;9.52;3.53;;;;;;;;;;4951099;29;20504;-74
2022/03/27 05:03:41;;;;;;;7.57;2.92;;;;;;;;;;4950457;28;20055;-75
2022/03/27 05:06:12;;;;;;;12.38;3.78;;;;;;;;;;4951332;29;20443;-74
2022/03/27 05:08:44;;;;;;;8.55;3.30;;;;;;;;;;4903845;28;20060;-75
2022/03/27 05:11:14;;;;;;;7.22;3.00;;;;;;;;;;4903840;29;20047;-75
2022/03/27 05:13:45;;;;;;;9.10;2.83;;;;;;;;;;4983448;28;20058;-75
2022/03/27 05:16:16;;;;;;;9.30;3.40;;;;;;;;;;4971615;28;20061;-73
2022/03/27 05:18:46;;;;;;;12.18;3.65;;;;;;;;;;4992812;28;20046;-74
2022/03/27 05:21:16;;;;;;;12.25;2.88;;;;;;;;;;5008848;28;20070;-74
2022/03/27 05:23:47;;;;;;;8.90;2.97;;;;;;;;;;5009494;28;20065;-75
2022/03/27 05:26:18;;;;;;;7.93;2.97;;;;;;;;;;5000202;28;20058;-74
2022/03/27 05:28:49;;;;;;;13.55;2.90;;;;;;;;;;5009424;28;20065;-73
2022/03/27 05:31:20;;;;;;;12.50;3.13;;;;;;;;;;4976605;28;20390;-73
2022/03/27 05:33:51;;;;;;;6.75;2.90;;;;;;;;;;4961228;28;20648;-74
2022/03/27 05:36:21;;;;;;;10.15;2.92;;;;;;;;;;4960535;28;20045;-74
2022/03/27 05:38:52;;;;;;;9.23;2.63;;;;;;;;;;5009282;28;20050;-74
2022/03/27 05:41:22;;;;;;;6.63;3.10;;;;;;;;;;5009102;28;20050;-74
2022/03/27 05:43:52;;;;;;;6.80;3.10;;;;;;;;;;5009036;28;20062;-73
2022/03/27 05:46:23;;;;;;;7.15;3.33;;;;;;;;;;5008905;28;20045;-74
2022/03/27 05:48:53;;;;;;;10.32;3.65;;;;;;;;;;5028609;28;20061;-74
2022/03/27 05:51:24;;;;;;;9.30;3.53;;;;;;;;;;5028579;28;20045;-74
2022/03/27 05:53:54;;;;;;;14.25;3.40;;;;;;;;;;5028625;28;20498;-73
2022/03/27 05:56:25;;;;;;;14.13;3.30;;;;;;;;;;5000588;28;20053;-73
2022/03/27 05:58:56;;;;;;;8.63;3.97;;;;;;;;;;5008879;28;20409;-73
2022/03/27 06:01:26;;;;;;;9.55;3.38;;;;;;;;;;4992971;28;20058;-74
2022/03/27 06:03:57;;;;;;;14.82;3.38;;;;;;;;;;4976287;28;20069;-72
2022/03/27 06:06:29;;;;;;;9.20;2.88;;;;;;;;;;4960513;28;20126;-73
2022/03/27 06:08:59;;;;;;;7.50;3.38;;;;;;;;;;4976172;28;20054;-74
2022/03/27 06:11:30;;;;;;;8.05;3.45;;;;;;;;;;5008694;28;20068;-74
2022/03/27 06:14:00;;;;;;;11.15;4.20;;;;;;;;;;5009354;28;20629;-74
2022/03/27 06:16:31;;;;;;;7.32;3.22;;;;;;;;;;5012674;28;20399;-73
2022/03/27 06:19:02;;;;;;;7.75;3.28;;;;;;;;;;5012606;28;20049;-74
2022/03/27 06:21:32;;;;;;;9.68;3.90;;;;;;;;;;5012076;28;20060;-73
2022/03/27 06:24:03;;;;;;;7.05;3.17;;;;;;;;;;5012766;28;20062;-74
2022/03/27 06:26:33;;;;;;;12.32;3.50;;;;;;;;;;5001964;28;20046;-74
2022/03/27 06:29:04;;;;;;;9.05;3.63;;;;;;;;;;4976673;28;20046;-74
2022/03/27 06:31:34;;;;;;;10.02;4.28;;;;;;;;;;4975877;28;20062;-74
2022/03/27 06:34:06;;;;;;;11.95;3.65;;;;;;;;;;5002635;28;20046;-74
2022/03/27 06:36:36;;;;;;;9.38;3.22;;;;;;;;;;5001501;28;20190;-75
2022/03/27 06:39:07;;;;;;;11.95;3.63;;;;;;;;;;4993127;28;20073;-75
2022/03/27 06:41:38;;;;;;;10.52;3.30;;;;;;;;;;4992254;28;20059;-75
2022/03/27 06:44:10;;;;;;;9.32;3.67;;;;;;;;;;4992532;28;20073;-75
2022/03/27 06:46:41;;;;;;;12.73;3.38;;;;;;;;;;4992378;28;20058;-73
2022/03/27 06:49:12;;;;;;;9.30;3.55;;;;;;;;;;5008790;28;20054;-76
2022/03/27 06:51:42;;;;;;;8.70;3.30;;;;;;;;;;4979021;28;20140;-75
2022/03/27 06:54:13;;;;;;;8.18;3.20;;;;;;;;;;5011919;28;20054;-76
2022/03/27 06:56:43;;;;;;;9.00;4.28;;;;;;;;;;5011835;28;20528;-74
2022/03/27 06:59:14;;;;;;;10.38;4.20;;;;;;;;;;4991933;28;20411;-75
2022/03/27 07:04:34;;;;;;;7.47;3.70;;;;;;;;;;5004461;28;20046;-75
2022/03/27 07:07:04;;;;;;;9.95;4.25;;;;;;;;;;5011224;28;20053;-76
2022/03/27 07:09:35;;;;;;;10.70;4.30;;;;;;;;;;5011522;28;20410;-76
2022/03/27 07:12:10;;;;;;;12.15;4.20;;;;;;;;;;5011514;28;20050;-75
2022/03/27 07:14:46;;;;;;;13.18;4.03;;;;;;;;;;5011756;28;20058;-74
2022/03/27 07:17:49;;;;;;;9.52;4.30;;;;;;;;;;4972291;28;20058;-75
2022/03/27 07:20:32;;;;;;;8.95;3.85;;;;;;;;;;4953829;28;20061;-75
2022/03/27 07:23:05;;;;;;;9.55;3.83;;;;;;;;;;4905439;28;20055;-75
2022/03/27 07:25:38;;;;;;;15.15;4.32;;;;;;;;;;4951881;28;20423;-74
2022/03/27 07:28:10;;;;;;;9.00;3.70;;;;;;;;;;4933454;28;20048;-75
2022/03/27 07:30:45;;;;;;;12.73;4.60;;;;;;;;;;4914866;29;20064;-75
2022/03/27 07:33:17;;;;;;;10.90;4.03;;;;;;;;;;4914854;29;20052;-75
2022/03/27 07:35:48;;;;;;;13.30;4.13;;;;;;;;;;4916383;28;20071;-75
2022/03/27 07:38:18;;;;;;;11.45;4.00;;;;;;;;;;4952707;28;20059;-75
2022/03/27 07:40:49;;;;;;;10.10;5.65;;;;;;;;;;4971581;28;20414;-75
2022/03/27 07:43:21;;;;;;;11.13;4.00;;;;;;;;;;4956250;28;20059;-77
2022/03/27 07:45:51;;;;;;;17.80;3.92;;;;;;;;;;4971818;28;20047;-75
2022/03/27 07:48:22;;;;;;;9.25;3.90;;;;;;;;;;4971781;28;20537;-76
2022/03/27 07:50:54;;;;;;;8.88;3.58;;;;;;;;;;4942434;28;20102;-76
2022/03/27 07:53:24;;;;;;;;;;;;;;;;;;4971706;28;20058;-76
2022/03/27 07:55:55;;;;;;;11.40;4.95;;;;;;;;;;4916710;29;19950;-74
2022/03/27 07:58:25;;;;;;;8.15;2.92;;;;;;;;;;4927158;29;20055;-75
2022/03/27 08:00:56;;;;;;;8.43;3.72;;;;;;;;;;4936288;29;20074;-74
2022/03/27 08:03:27;;;;;;;15.35;2.65;;;;;;;;;;4921531;29;20064;-76
2022/03/27 08:05:58;;;;;;;9.57;3.10;;;;;;;;;;4924868;29;20066;-75
2022/03/27 08:08:30;;;;;;;10.13;3.20;;;;;;;;;;4932798;29;20052;-76
2022/03/27 08:11:02;;;;;;;7.10;2.80;;;;;;;;;;4932968;29;20059;-76
2022/03/27 08:13:33;;;;;;;9.55;2.83;;;;;;;;;;4916970;29;20061;-74
2022/03/27 08:16:03;;;;;;;13.88;3.17;;;;;;;;;;4901130;29;20055;-76
2022/03/27 08:18:34;;;;;;;10.32;3.10;;;;;;;;;;4932779;29;20511;-74
2022/03/27 08:21:05;;;;;;;10.07;3.35;;;;;;;;;;4932670;29;20055;-75
2022/03/27 08:23:35;;;;;;;6.85;3.05;;;;;;;;;;4913805;29;20197;-75
2022/03/27 08:28:55;;;;;;;10.65;3.55;;;;;;;;;;4926262;29;20060;-76
2022/03/27 08:31:25;;;;;;;6.63;2.97;;;;;;;;;;4892178;29;20055;-76
2022/03/27 08:33:56;;;;;;;9.98;3.00;;;;;;;;;;4935694;29;20056;-76
2022/03/27 08:36:27;;;;;;;7.72;3.45;;;;;;;;;;4922216;29;20051;-76
2022/03/27 08:38:58;;;;;;;5.75;2.90;;;;;;;;;;4919851;29;20052;-75
2022/03/27 08:41:28;;;;;;;9.25;3.22;;;;;;;;;;4929293;28;20062;-75
2022/03/27 08:44:00;;;;;;;9.25;3.33;;;;;;;;;;4952081;28;20063;-76
2022/03/27 08:46:31;;;;;;;6.93;3.05;;;;;;;;;;4977144;28;20066;-75
2022/03/27 08:49:27;;;;;;;7.20;3.13;;;;;;;;;;4970856;28;20054;-76
2022/03/27 08:52:10;;;;;;;8.05;3.17;;;;;;;;;;4951563;29;20055;-75
2022/03/27 08:54:58;;;;;;;7.32;3.00;;;;;;;;;;4951210;29;20063;-75
2022/03/27 08:57:31;;;;;;;10.80;2.95;;;;;;;;;;4951237;29;20047;-74
2022/03/27 09:00:02;;;;;;;8.05;2.80;;;;;;;;;;4951209;29;20055;-75
2022/03/27 09:02:33;;;;;;;7.70;3.15;;;;;;;;;;4951295;29;20055;-75
2022/03/27 09:05:04;;;;;;;14.57;3.40;;;;;;;;;;4951226;29;20470;-75
2022/03/27 09:07:38;;;;;;;8.70;3.63;;;;;;;;;;4951056;29;20043;-74
2022/03/27 09:10:10;;;;;;;8.52;3.40;;;;;;;;;;4947213;29;20047;-76
2022/03/27 09:12:42;;;;;;;7.45;3.33;;;;;;;;;;4885140;29;20500;-75
2022/03/27 09:15:19;;;;;;;9.45;3.20;;;;;;;;;;4931856;29;20060;-76
2022/03/27 09:18:04;;;;;;;13.45;3.20;;;;;;;;;;4932117;29;20063;-75
2022/03/27 09:20:37;;;;;;;9.07;4.07;;;;;;;;;;4916460;29;20416;-76
2022/03/27 09:23:38;;;;;;;6.85;3.13;;;;;;;;;;4931796;29;20554;-75
2022/03/27 09:26:17;;;;;;;6.03;3.13;;;;;;;;;;4936968;29;20063;-74
2022/03/27 09:28:57;;;;;;;9.98;3.15;;;;;;;;;;4937358;29;20399;-77
2022/03/27 09:31:29;;;;;;;8.55;3.03;;;;;;;;;;4950711;28;20051;-75
2022/03/27 09:34:02;;;;;;;6.70;2.75;;;;;;;;;;4951621;28;20063;-75
2022/03/27 09:36:42;;;;;;;7.50;3.17;;;;;;;;;;4970132;28;20419;-74
2022/03/27 09:39:20;;;;;;;8.93;3.50;;;;;;;;;;4950617;29;20051;-74
2022/03/27 09:41:58;;;;;;;10.10;3.58;;;;;;;;;;4950839;29;20058;-75
2022/03/27 09:44:34;;;;;;;6.88;3.22;;;;;;;;;;4931373;29;20047;-76
2022/03/27 09:47:06;;;;;;;7.07;2.92;;;;;;;;;;4935635;29;20074;-73
2022/03/27 09:49:41;;;;;;;8.27;3.00;;;;;;;;;;4952243;28;20518;-73
2022/03/27 09:52:14;;;;;;;19.70;3.60;;;;;;;;;;4935198;29;20071;-75
2022/03/27 09:54:55;;;;;;;9.13;3.13;;;;;;;;;;4897477;29;20052;-75
2022/03/27 09:57:39;;;;;;;5.85;2.63;;;;;;;;;;4897386;29;20202;-75
2022/03/27 10:00:13;;;;;;;8.52;3.08;;;;;;;;;;4881803;29;20057;-75
2022/03/27 10:02:49;;;;;;;5.80;2.85;;;;;;;;;;4866179;29;20056;-75
2022/03/27 10:05:21;;;;;;;6.40;3.55;;;;;;;;;;4898600;29;20064;-75
2022/03/27 10:07:56;;;;;;;6.88;3.72;;;;;;;;;;4897014;29;20559;-76
2022/03/27 10:10:28;;;;;;;7.88;3.03;;;;;;;;;;4897057;29;20065;-75
2022/03/27 10:13:00;;;;;;;8.50;3.30;;;;;;;;;;4893431;29;20049;-74
2022/03/27 10:15:31;;;;;;;6.53;2.88;;;;;;;;;;4859575;29;20057;-75
2022/03/27 10:18:20;;;;;;;7.28;3.22;;;;;;;;;;4856966;29;20061;-74
2022/03/27 10:20:58;;;;;;;6.03;3.22;;;;;;;;;;4841401;29;20061;-74
2022/03/27 10:23:31;;;;;;;6.65;3.00;;;;;;;;;;4859839;29;20069;-73
2022/03/27 10:26:05;;;;;;;8.65;4.03;;;;;;;;;;4859086;29;20057;-75
2022/03/27 10:28:39;;;;;;;8.38;3.80;;;;;;;;;;4859424;29;20084;-74
2022/03/27 10:31:10;;;;;;;7.18;3.40;;;;;;;;;;4915718;29;20060;-74
2022/03/27 10:33:41;;;;;;;10.48;4.28;;;;;;;;;;4934530;29;20060;-75
2022/03/27 10:36:30;;;;;;;13.85;4.30;;;;;;;;;;4934729;29;20056;-75
2022/03/27 10:39:14;;;;;;;11.23;4.32;;;;;;;;;;4934529;29;20063;-73
2022/03/27 10:41:57;;;;;;;9.65;4.25;;;;;;;;;;4953352;29;20047;-75
2022/03/27 10:44:42;;;;;;;9.75;4.93;;;;;;;;;;4903989;29;20096;-72
2022/03/27 10:47:15;;;;;;;;;;;;;;;;;;4951237;29;20056;-73
2022/03/27 10:50:08;;;;;;;10.05;4.32;;;;;;;;;;4936899;29;19933;-75
2022/03/27 10:52:51;;;;;;;12.75;5.97;;;;;;;;;;4959080;28;20067;-73
2022/03/27 10:55:22;;;;;;;10.85;4.90;;;;;;;;;;4972413;28;20086;-75
2022/03/27 10:57:53;;;;;;;10.50;4.88;;;;;;;;;;4972562;28;20059;-73
2022/03/27 11:00:41;;;;;;;15.15;5.82;;;;;;;;;;4955932;28;20414;-74
2022/03/27 11:03:44;;;;;;;16.35;5.40;;;;;;;;;;4972164;28;20051;-72
2022/03/27 11:06:30;;;;;;;10.02;5.05;;;;;;;;;;4972472;28;20054;-73
2022/03/27 11:09:08;;;;;;;8.10;4.53;;;;;;;;;;4972722;28;20051;-73
2022/03/27 11:11:43;;;;;;;9.35;3.60;;;;;;;;;;5009498;28;20061;-72
2022/03/27 11:14:23;;;;;;;8.50;4.03;;;;;;;;;;4991574;28;20077;-72
2022/03/27 11:17:06;;;;;;;9.50;3.70;;;;;;;;;;4991924;28;20656;-73
2022/03/27 11:19:45;;;;;;;7.22;3.35;;;;;;;;;;4980392;28;20162;-72
2022/03/27 11:22:45;;;;;;;12.02;4.03;;;;;;;;;;4956807;28;20051;-72
2022/03/27 11:25:33;;;;;;;8.02;4.13;;;;;;;;;;4972699;28;20050;-71
2022/03/27 11:28:06;;;;;;;14.55;4.75;;;;;;;;;;4956832;28;20427;-71
2022/03/27 11:30:58;;;;;;;;;;;;;;;;;;4972924;28;20047;-72
2022/03/27 11:33:30;;;;;;;9.05;3.58;;;;;;;;;;5025091;28;19921;-72
2022/03/27 11:36:11;;;;;;;8.15;3.45;;;;;;;;;;5031093;28;20057;-72
2022/03/27 11:39:07;;;;;;;6.75;3.35;;;;;;;;;;5013893;28;20509;-71
2022/03/27 11:41:44;;;;;;;6.53;3.20;;;;;;;;;;5030592;28;20053;-71
2022/03/27 11:44:18;;;;;;;6.18;3.10;;;;;;;;;;5030405;28;20713;-71
2022/03/27 11:46:54;;;;;;;5.45;2.88;;;;;;;;;;5030848;28;20053;-71
2022/03/27 11:49:38;;;;;;;7.43;3.33;;;;;;;;;;4997743;28;20049;-71
2022/03/27 11:52:13;;;;;;;7.15;2.90;;;;;;;;;;5005460;28;20572;-71
2022/03/27 11:54:44;;;;;;;6.97;3.20;;;;;;;;;;4961768;28;20126;-72
2022/03/27 11:57:17;;;;;;;7.70;3.13;;;;;;;;;;5010739;28;20058;-72
2022/03/27 11:59:53;;;;;;;7.40;4.50;;;;;;;;;;5010771;28;20072;-72
2022/03/27 12:02:41;;;;;;;6.13;3.15;;;;;;;;;;5026147;28;20050;-72
2022/03/27 12:05:13;;;;;;;7.97;3.72;;;;;;;;;;5010375;28;20847;-72
2022/03/27 12:07:50;;;;;;;7.22;3.00;;;;;;;;;;5010506;28;20065;-72
2022/03/27 12:10:22;;;;;;;9.60;3.00;;;;;;;;;;4986703;28;20051;-72
2022/03/27 12:12:59;;;;;;;8.23;2.90;;;;;;;;;;4970913;28;20050;-72
2022/03/27 12:15:53;;;;;;;6.95;3.13;;;;;;;;;;4970581;28;20066;-73
2022/03/27 12:18:38;;;;;;;6.75;2.53;;;;;;;;;;4970787;28;20090;-72
2022/03/27 12:21:12;;;;;;;5.00;3.13;;;;;;;;;;4967748;28;20063;-71
2022/03/27 12:23:48;;;;;;;5.80;2.40;;;;;;;;;;4970677;28;20054;-72
2022/03/27 12:29:43;;;;;;;4.70;2.63;;;;;;;;;;4951028;28;20455;-72
2022/03/27 12:32:21;;;;;;;5.30;2.90;;;;;;;;;;4927634;28;20091;-72
2022/03/27 12:34:56;;;;;;;;;;;;;;;;;;4971161;28;20066;-72
2022/03/27 12:37:30;;;;;;;5.47;2.50;;;;;;;;;;4970718;28;19921;-72
2022/03/27 12:40:05;;;;;;;10.30;3.75;;;;;;;;;;4959500;28;20488;-72
2022/03/27 12:42:44;;;;;;;7.93;2.72;;;;;;;;;;4970612;28;20176;-72
2022/03/27 12:45:22;;;;;;;4.80;2.38;;;;;;;;;;4967832;28;20073;-71
2022/03/27 12:47:55;;;;;;;6.47;2.50;;;;;;;;;;4957305;28;20066;-72
2022/03/27 12:50:26;;;;;;;6.05;3.05;;;;;;;;;;4984344;28;20054;-72
2022/03/27 12:53:13;;;;;;;6.53;2.83;;;;;;;;;;4957519;28;20062;-72
2022/03/27 12:56:00;;;;;;;6.40;2.78;;;;;;;;;;4957335;28;20058;-72
2022/03/27 12:58:41;;;;;;;6.63;2.47;;;;;;;;;;4966405;28;20059;-70
2022/03/27 13:01:13;;;;;;;;;;;;;;;;;;4929987;28;20051;-72
2022/03/27 13:04:04;;;;;;;4.40;1.33;;;;;;;;;;4986964;28;19921;-71
2022/03/27 13:06:37;;;;;;;3.90;2.50;;;;;;;;;;4996221;28;20459;-72
2022/03/27 13:09:08;;;;;;;6.60;2.33;;;;;;;;;;5008207;28;20054;-71
2022/03/27 13:11:41;;;;;;;4.70;2.45;;;;;;;;;;5008757;28;20058;-70
2022/03/27 13:14:16;;;;;;;3.90;2.05;;;;;;;;;;4955829;28;20050;-70
2022/03/27 13:16:58;;;;;;;3.72;2.22;;;;;;;;;;4988840;28;20073;-70
2022/03/27 13:19:43;;;;;;;3.63;1.58;;;;;;;;;;4985169;28;20078;-71
2022/03/27 13:22:14;;;;;;;4.10;2.10;;;;;;;;;;4985011;28;20507;-71
2022/03/27 13:24:50;;;;;;;3.13;1.50;;;;;;;;;;4953193;28;20066;-71
2022/03/27 13:27:20;;;;;;;3.88;1.83;;;;;;;;;;4937261;28;20593;-71
2022/03/27 13:29:50;;;;;;;4.85;2.42;;;;;;;;;;4969020;28;20062;-71
2022/03/27 13:32:22;;;;;;;2.72;1.10;;;;;;;;;;4969413;28;20062;-70
2022/03/27 13:34:52;;;;;;;4.78;2.45;;;;;;;;;;4937105;28;20062;-70
2022/03/27 13:37:23;;;;;;;4.22;1.85;;;;;;;;;;5026408;28;20541;-70
2022/03/27 13:39:53;;;;;;;8.80;4.05;;;;;;;;;;5027982;28;20053;-71
2022/03/27 13:45:18;;;;;;;15.93;8.85;;;;;;;;;;5023453;28;20197;-71
2022/03/27 13:47:48;;;;;;;3.40;1.75;;;;;;;;;;5014422;28;20046;-70
2022/03/27 13:50:19;;;;;;;5.32;3.22;;;;;;;;;;5007806;28;20461;-70
2022/03/27 13:52:51;;;;;;;5.45;2.17;;;;;;;;;;4952773;28;20051;-71
2022/03/27 13:55:22;;;;;;;5.65;2.15;;;;;;;;;;4965470;28;20466;-71
2022/03/27 13:57:53;;;;;;;5.57;2.83;;;;;;;;;;4936343;28;20051;-71
2022/03/27 14:00:24;;;;;;;4.68;1.95;;;;;;;;;;4968862;28;20059;-72
2022/03/27 14:02:55;;;;;;;5.18;1.95;;;;;;;;;;4968442;28;20054;-70
2022/03/27 14:05:27;;;;;;;4.50;1.95;;;;;;;;;;4968966;28;20516;-71
2022/03/27 14:07:58;;;;;;;6.10;1.90;;;;;;;;;;4967908;28;20059;-72
2022/03/27 14:10:28;;;;;;;7.05;4.10;;;;;;;;;;4968154;28;20059;-72
2022/03/27 14:12:59;;;;;;;4.57;1.88;;;;;;;;;;4968841;28;20186;-71
2022/03/27 14:15:30;;;;;;;2.95;1.52;;;;;;;;;;4987822;28;20050;-72
2022/03/27 14:18:02;;;;;;;2.22;1.45;;;;;;;;;;4987993;28;20070;-70
2022/03/27 14:20:33;;;;;;;3.05;1.60;;;;;;;;;;4968721;28;20058;-70
2022/03/27 14:23:04;;;;;;;8.60;4.88;;;;;;;;;;4925789;28;20086;-70
2022/03/27 14:25:35;;;;;;;3.92;2.15;;;;;;;;;;4889734;29;20091;-71
2022/03/27 14:28:06;;;;;;;7.55;1.70;;;;;;;;;;4968109;28;20061;-72
2022/03/27 14:30:37;;;;;;;3.03;1.50;;;;;;;;;;4957274;28;20058;-72
2022/03/27 14:33:08;;;;;;;5.07;2.95;;;;;;;;;;4966963;28;20078;-72
2022/03/27 14:35:39;;;;;;;4.63;1.80;;;;;;;;;;4979663;28;20438;-71
2022/03/27 14:38:10;;;;;;;3.67;1.85;;;;;;;;;;4990422;28;20054;-72
2022/03/27 14:40:42;;;;;;;10.77;6.32;;;;;;;;;;4990721;28;20070;-72
2022/03/27 14:43:14;;;;;;;9.52;5.22;;;;;;;;;;4958115;28;20062;-72
2022/03/27 14:45:45;;;;;;;4.10;2.03;;;;;;;;;;4957784;28;20058;-72
2022/03/27 14:48:15;;;;;;;5.25;2.40;;;;;;;;;;4989829;28;20058;-71
2022/03/27 14:50:47;;;;;;;3.45;1.80;;;;;;;;;;4990145;28;20085;-71
2022/03/27 14:53:18;;;;;;;2.40;1.10;;;;;;;;;;4990504;28;20208;-72
2022/03/27 14:55:59;;;;;;;1.60;0.75;;;;;;;;;;4990686;28;20058;-70
2022/03/27 14:58:31;;;;;;;3.67;1.60;;;;;;;;;;4956903;28;20485;-72
2022/03/27 15:01:02;;;;;;;4.07;1.80;;;;;;;;;;4974734;28;20418;-71
2022/03/27 15:03:37;;;;;;;2.33;1.30;;;;;;;;;;4934406;28;20059;-72
2022/03/27 15:06:08;;;;;;;2.45;1.58;;;;;;;;;;4948923;28;20643;-70
2022/03/27 15:08:39;;;;;;;3.60;1.10;;;;;;;;;;4951257;28;20058;-70
2022/03/27 15:11:10;;;;;;;2.85;1.40;;;;;;;;;;4987802;28;20061;-71
2022/03/27 15:13:41;;;;;;;2.50;1.08;;;;;;;;;;5009028;28;20053;-71
2022/03/27 15:16:12;;;;;;;1.98;1.00;;;;;;;;;;5006826;28;20046;-70
2022/03/27 15:18:43;;;;;;;1.80;0.98;;;;;;;;;;5009288;28;20069;-71
2022/03/27 15:21:13;;;;;;;2.47;1.13;;;;;;;;;;4975557;28;20065;-71
2022/03/27 15:23:44;;;;;;;2.63;1.17;;;;;;;;;;5009222;28;20097;-71
2022/03/27 15:26:17;;;;;;;3.13;1.00;;;;;;;;;;5009343;28;20053;-71
2022/03/27 15:28:47;;;;;;;2.05;1.25;;;;;;;;;;4975841;28;20082;-72
2022/03/27 15:31:22;;;;;;;1.45;0.85;;;;;;;;;;4989657;28;20065;-72